Time;durP1;ratioP1;P1;durP2;ratioP2;P2;SDS_P1;SDS_P2;PMS_P1;PMS_P2;Temp;Humidity;BMP_temperature;BMP_pressure;BME280_temperature;BME280_humidity;BME280_pressure;Samples;Min_cycle;Max_cycle;Signal;HPM_P1;HPM_P2
2022/05/11 00:01:31;;;;;;;18.35;2.42;;;13.30;99.90;;;;;;5033134;28;20190;-58
2022/05/11 00:03:58;;;;;;;16.73;2.50;;;13.40;99.90;;;;;;5034117;28;20181;-58
2022/05/11 00:06:25;;;;;;;14.63;2.45;;;13.40;99.90;;;;;;5034129;28;20621;-58
2022/05/11 00:08:52;;;;;;;12.77;2.38;;;13.40;99.90;;;;;;5034070;28;20273;-58
2022/05/11 00:11:18;;;;;;;11.82;2.08;;;13.50;99.90;;;;;;5033899;28;20177;-58
2022/05/11 00:13:44;;;;;;;17.80;2.53;;;13.50;99.90;;;;;;5033907;28;20173;-58
2022/05/11 00:16:10;;;;;;;16.58;2.28;;;13.50;99.90;;;;;;5033900;28;20273;-58
2022/05/11 00:18:37;;;;;;;18.33;1.90;;;13.50;99.90;;;;;;5033777;28;20392;-58
2022/05/11 00:21:03;;;;;;;18.88;2.65;;;13.50;99.90;;;;;;5033817;28;20178;-58
2022/05/11 00:23:29;;;;;;;12.57;2.45;;;13.60;99.90;;;;;;5049173;28;20170;-57
2022/05/11 00:25:55;;;;;;;12.48;2.30;;;13.60;99.90;;;;;;5033645;28;20180;-58
2022/05/11 00:28:20;;;;;;;15.35;2.40;;;13.50;99.90;;;;;;5033641;28;20166;-57
2022/05/11 00:30:46;;;;;;;11.93;2.35;;;13.50;99.90;;;;;;5033572;28;20181;-58
2022/05/11 00:33:13;;;;;;;13.50;2.22;;;13.50;99.90;;;;;;5033699;28;20560;-57
2022/05/11 00:35:41;;;;;;;18.38;2.20;;;13.50;99.90;;;;;;5033581;28;20197;-58
2022/05/11 00:38:07;;;;;;;9.00;1.63;;;13.50;99.90;;;;;;5031867;28;20185;-57
2022/05/11 00:40:38;;;;;;;15.27;1.95;;;14.00;99.90;;;;;;5033288;28;20532;-58
2022/05/11 00:43:03;;;;;;;13.30;2.45;;;13.40;99.90;;;;;;5033194;28;20652;-58
2022/05/11 00:45:29;;;;;;;13.88;2.50;;;13.40;99.90;;;;;;5033188;28;20225;-57
2022/05/11 00:48:01;;;;;;;12.75;2.30;;;13.40;99.90;;;;;;5033468;28;20178;-58
2022/05/11 00:50:30;;;;;;;13.93;2.58;;;13.50;99.90;;;;;;5033237;28;20238;-58
2022/05/11 00:53:09;;;;;;;18.50;2.78;;;13.50;99.90;;;;;;5033164;28;20260;-57
2022/05/11 00:55:40;;;;;;;13.07;2.20;;;13.50;99.90;;;;;;5033229;28;20607;-57
2022/05/11 00:58:19;;;;;;;17.50;3.05;;;13.50;99.90;;;;;;5033037;28;20177;-58
2022/05/11 01:00:46;;;;;;;15.15;2.45;;;13.50;99.90;;;;;;5033186;28;20180;-58
2022/05/11 01:03:21;;;;;;;17.67;2.28;;;13.60;99.90;;;;;;5033130;28;20270;-58
2022/05/11 01:05:47;;;;;;;15.63;2.25;;;13.50;99.90;;;;;;5032972;28;20184;-58
2022/05/11 01:08:15;;;;;;;22.02;2.35;;;13.50;99.90;;;;;;5033061;28;20166;-57
2022/05/11 01:10:42;;;;;;;21.77;2.42;;;13.50;99.90;;;;;;5032845;28;20201;-58
2022/05/11 01:13:11;;;;;;;12.18;2.10;;;13.40;99.90;;;;;;5031943;28;20174;-58
2022/05/11 01:15:37;;;;;;;15.98;2.00;;;13.40;99.90;;;;;;5032708;28;20166;-58
2022/05/11 01:18:06;;;;;;;11.55;2.45;;;13.40;99.90;;;;;;5033160;28;20198;-58
2022/05/11 01:20:35;;;;;;;19.17;3.10;;;12.90;99.90;;;;;;5032792;28;20186;-58
2022/05/11 01:23:15;;;;;;;20.13;2.80;;;13.30;99.90;;;;;;5032755;28;20636;-58
2022/05/11 01:25:41;;;;;;;15.38;2.92;;;13.30;99.90;;;;;;5032549;28;20648;-58
2022/05/11 01:28:13;;;;;;;14.60;2.40;;;13.30;99.90;;;;;;5032438;28;20260;-58
2022/05/11 01:30:51;;;;;;;8.73;1.90;;;13.30;99.90;;;;;;5032384;28;20181;-58
2022/05/11 01:33:22;;;;;;;15.20;2.60;;;13.20;99.90;;;;;;5032541;28;20193;-57
2022/05/11 01:36:13;;;;;;;14.63;2.20;;;13.20;99.90;;;;;;5032581;28;20180;-57
2022/05/11 01:38:50;;;;;;;14.32;2.35;;;13.20;99.90;;;;;;5032293;28;20236;-58
2022/05/11 01:41:43;;;;;;;13.65;2.40;;;13.20;99.90;;;;;;5032329;28;20328;-58
2022/05/11 01:44:12;;;;;;;14.07;2.22;;;13.20;99.90;;;;;;5032083;28;20259;-58
2022/05/11 01:46:39;;;;;;;17.63;2.42;;;13.20;99.90;;;;;;5032213;28;20311;-58
2022/05/11 01:49:06;;;;;;;18.00;2.50;;;13.20;99.90;;;;;;5032272;28;20169;-58
2022/05/11 01:51:32;;;;;;;12.55;2.05;;;13.20;99.90;;;;;;5032092;28;20276;-58
2022/05/11 01:53:58;;;;;;;16.27;2.50;;;13.20;99.90;;;;;;5032130;28;20223;-57
2022/05/11 01:56:25;;;;;;;15.57;2.47;;;13.20;99.90;;;;;;5032160;28;20174;-58
2022/05/11 01:58:52;;;;;;;21.17;3.10;;;13.20;99.90;;;;;;5031925;28;20205;-58
2022/05/11 02:01:21;;;;;;;16.77;2.42;;;13.20;99.90;;;;;;5031865;28;20220;-57
2022/05/11 02:03:47;;;;;;;14.73;2.30;;;13.20;99.90;;;;;;5031902;28;20166;-57
2022/05/11 02:08:58;;;;;;;13.80;2.00;;;13.20;99.90;;;;;;5031867;28;20243;-58
2022/05/11 02:11:24;;;;;;;17.08;2.42;;;13.20;99.90;;;;;;5032120;28;20185;-58
2022/05/11 02:13:50;;;;;;;12.93;2.40;;;13.10;99.90;;;;;;5031772;28;20852;-58
2022/05/11 02:16:15;;;;;;;17.63;2.55;;;13.10;99.90;;;;;;5031533;28;20511;-58
2022/05/11 02:18:41;;;;;;;11.93;2.07;;;13.20;99.90;;;;;;5031474;28;20197;-58
2022/05/11 02:21:07;;;;;;;12.40;2.05;;;13.10;99.90;;;;;;5031745;28;20289;-57
2022/05/11 02:23:34;;;;;;;17.65;2.25;;;13.00;99.90;;;;;;5031634;28;20170;-58
2022/05/11 02:26:00;;;;;;;16.02;2.60;;;12.90;99.90;;;;;;5031615;28;20185;-58
2022/05/11 02:28:26;;;;;;;18.27;2.75;;;12.90;99.90;;;;;;5031390;28;20166;-57
2022/05/11 02:30:54;;;;;;;15.43;2.50;;;12.90;99.90;;;;;;5031234;28;20682;-58
2022/05/11 02:33:21;;;;;;;16.87;2.50;;;12.80;99.90;;;;;;5031601;28;20177;-58
2022/05/11 02:35:48;;;;;;;17.73;3.10;;;12.80;99.90;;;;;;5031297;28;20174;-57
2022/05/11 02:38:19;;;;;;;14.90;2.37;;;12.80;99.90;;;;;;5031179;28;20173;-58
2022/05/11 02:40:46;;;;;;;15.27;2.50;;;12.70;99.90;;;;;;5031300;28;20177;-58
2022/05/11 02:43:11;;;;;;;22.55;3.00;;;12.70;99.90;;;;;;5030999;28;20175;-58
2022/05/11 02:45:40;;;;;;;21.33;2.43;;;12.70;99.90;;;;;;5031007;28;20177;-58
2022/05/11 02:48:07;;;;;;;13.57;2.53;;;12.60;99.90;;;;;;5031148;28;20621;-58
2022/05/11 02:50:37;;;;;;;15.40;2.60;;;12.70;99.90;;;;;;5029156;28;20186;-58
2022/05/11 02:53:07;;;;;;;13.80;2.90;;;12.60;99.90;;;;;;5020077;28;20695;-58
2022/05/11 02:55:37;;;;;;;18.03;2.40;;;12.50;99.90;;;;;;5030972;28;20177;-58
2022/05/11 02:58:04;;;;;;;15.90;3.17;;;12.50;99.90;;;;;;5031307;28;20350;-58
2022/05/11 03:00:31;;;;;;;19.23;3.07;;;12.40;99.90;;;;;;5030017;28;20292;-58
2022/05/11 03:02:58;;;;;;;13.53;2.50;;;12.40;99.90;;;;;;5030809;28;20166;-58
2022/05/11 03:05:23;;;;;;;22.07;3.37;;;12.40;99.90;;;;;;5031151;28;20247;-58
2022/05/11 03:07:49;;;;;;;15.37;2.90;;;12.40;99.90;;;;;;5030936;28;20636;-58
2022/05/11 03:10:15;;;;;;;12.20;2.57;;;12.40;99.90;;;;;;5030849;28;20670;-57
2022/05/11 03:12:40;;;;;;;18.10;2.90;;;12.30;99.90;;;;;;5030742;28;20580;-58
2022/05/11 03:15:08;;;;;;;17.33;2.63;;;12.40;99.90;;;;;;5030841;28;20220;-58
2022/05/11 03:17:33;;;;;;;18.00;3.13;;;12.30;99.90;;;;;;5030819;28;20228;-58
2022/05/11 03:19:59;;;;;;;16.13;2.70;;;12.30;99.90;;;;;;5030517;28;20217;-58
2022/05/11 03:22:25;;;;;;;19.40;2.63;;;12.20;99.90;;;;;;5030752;28;20308;-58
2022/05/11 03:24:51;;;;;;;18.90;2.67;;;12.20;99.90;;;;;;5030741;28;20571;-58
2022/05/11 03:27:17;;;;;;;18.03;2.97;;;12.20;99.90;;;;;;5030460;28;20162;-58
2022/05/11 03:29:43;;;;;;;17.10;3.73;;;12.20;99.90;;;;;;5030931;28;20211;-58
2022/05/11 03:34:53;;;;;;;11.43;2.57;;;12.20;99.90;;;;;;5030837;28;20264;-58
2022/05/11 03:37:20;;;;;;;15.60;2.90;;;12.10;99.90;;;;;;5034692;28;20278;-58
2022/05/11 03:39:45;;;;;;;17.77;2.93;;;12.10;99.90;;;;;;5034432;28;20210;-58
2022/05/11 03:42:14;;;;;;;15.90;2.60;;;12.20;99.90;;;;;;5034731;28;20671;-58
2022/05/11 03:44:40;;;;;;;17.67;2.93;;;12.10;99.90;;;;;;5034434;28;20308;-58
2022/05/11 03:47:06;;;;;;;16.43;3.33;;;12.20;99.90;;;;;;5034256;28;20190;-58
2022/05/11 03:49:33;;;;;;;16.27;2.90;;;12.20;99.90;;;;;;5034448;28;20188;-58
2022/05/11 03:51:59;;;;;;;21.63;3.30;;;12.20;99.90;;;;;;5034374;28;20178;-58
2022/05/11 03:54:25;;;;;;;15.13;2.67;;;12.10;99.90;;;;;;5034167;28;20178;-58
2022/05/11 03:56:51;;;;;;;16.70;2.90;;;12.10;99.90;;;;;;5034331;28;20704;-58
2022/05/11 03:59:17;;;;;;;12.17;2.80;;;12.10;99.90;;;;;;5034178;28;20679;-58
2022/05/11 04:01:43;;;;;;;17.80;2.97;;;12.10;99.90;;;;;;5034179;28;20257;-58
2022/05/11 04:04:09;;;;;;;22.47;2.90;;;12.10;99.90;;;;;;5034209;28;20178;-58
2022/05/11 04:06:34;;;;;;;14.77;2.87;;;12.10;99.90;;;;;;5034138;28;20232;-59
2022/05/11 04:09:00;;;;;;;15.20;2.77;;;12.10;99.90;;;;;;5034033;28;20219;-59
2022/05/11 04:11:28;;;;;;;15.47;2.87;;;12.10;99.90;;;;;;5033997;28;20252;-59
2022/05/11 04:13:55;;;;;;;18.80;2.93;;;12.10;99.90;;;;;;5034051;28;20212;-58
2022/05/11 04:16:20;;;;;;;17.87;3.37;;;12.00;99.90;;;;;;5033932;28;20640;-58
2022/05/11 04:18:47;;;;;;;16.47;3.07;;;12.10;99.90;;;;;;5033813;28;20200;-58
2022/05/11 04:21:12;;;;;;;23.73;3.63;;;12.10;99.90;;;;;;5033865;28;20185;-58
2022/05/11 04:23:40;;;;;;;16.40;3.90;;;12.00;99.90;;;;;;5033683;28;20556;-58
2022/05/11 04:26:07;;;;;;;18.20;3.33;;;12.10;99.90;;;;;;5033933;28;20190;-58
2022/05/11 04:28:33;;;;;;;11.03;2.67;;;12.10;99.90;;;;;;5033733;28;20178;-58
2022/05/11 04:31:07;;;;;;;16.07;3.47;;;12.10;99.90;;;;;;5033565;28;20166;-59
2022/05/11 04:33:34;;;;;;;13.30;3.30;;;12.10;99.90;;;;;;5033764;28;20174;-59
2022/05/11 04:36:01;;;;;;;17.70;3.77;;;12.10;99.90;;;;;;5033504;28;20563;-58
2022/05/11 04:38:27;;;;;;;15.17;2.97;;;12.10;99.90;;;;;;5033602;28;20256;-58
2022/05/11 04:40:53;;;;;;;26.83;5.10;;;12.10;99.90;;;;;;5033574;28;20649;-58
2022/05/11 04:43:18;;;;;;;20.50;3.63;;;12.10;99.90;;;;;;5033400;28;20253;-58
2022/05/11 04:45:45;;;;;;;20.07;3.30;;;12.10;99.90;;;;;;5033332;28;20708;-58
2022/05/11 04:48:12;;;;;;;20.57;3.90;;;12.10;99.90;;;;;;5032101;28;20180;-58
2022/05/11 04:50:42;;;;;;;16.67;3.20;;;12.10;99.90;;;;;;5033313;28;20193;-58
2022/05/11 04:53:08;;;;;;;15.57;2.90;;;12.10;99.90;;;;;;5033493;28;20281;-58
2022/05/11 04:55:34;;;;;;;26.33;3.43;;;12.10;99.90;;;;;;5033469;28;20654;-58
2022/05/11 04:58:00;;;;;;;17.43;3.30;;;12.00;99.90;;;;;;5030596;28;20186;-59
2022/05/11 05:00:26;;;;;;;18.50;3.40;;;12.10;99.90;;;;;;5032989;28;20616;-58
2022/05/11 05:02:52;;;;;;;21.63;3.30;;;12.10;99.90;;;;;;5032966;28;20170;-58
2022/05/11 05:05:19;;;;;;;15.80;3.20;;;12.10;99.90;;;;;;5033083;28;20697;-58
2022/05/11 05:07:45;;;;;;;17.43;3.50;;;12.10;99.90;;;;;;5033039;28;20541;-58
2022/05/11 05:10:13;;;;;;;21.90;3.73;;;12.20;99.90;;;;;;5032869;28;20178;-58
2022/05/11 05:12:40;;;;;;;14.47;3.17;;;12.20;99.90;;;;;;5032861;28;20177;-58
2022/05/11 05:15:07;;;;;;;17.00;3.67;;;12.20;99.90;;;;;;5031463;28;20174;-58
2022/05/11 05:17:32;;;;;;;23.87;3.40;;;12.20;99.90;;;;;;5032710;28;20174;-58
2022/05/11 05:19:58;;;;;;;16.58;3.00;;;12.20;99.90;;;;;;5032613;28;20648;-58
2022/05/11 05:22:24;;;;;;;16.87;3.60;;;12.20;99.90;;;;;;5032624;28;20181;-58
2022/05/11 05:24:50;;;;;;;16.53;3.20;;;12.20;99.90;;;;;;5032456;28;20184;-58
2022/05/11 05:27:18;;;;;;;18.00;3.33;;;12.20;99.90;;;;;;5032587;28;20205;-58
2022/05/11 05:32:33;;;;;;;16.27;3.50;;;12.20;99.90;;;;;;5032694;28;20312;-58
2022/05/11 05:35:00;;;;;;;17.80;3.07;;;12.20;99.90;;;;;;5032567;28;20224;-58
2022/05/11 05:37:25;;;;;;;18.57;3.20;;;12.10;99.90;;;;;;5032583;28;20197;-58
2022/05/11 05:39:51;;;;;;;18.27;3.67;;;12.10;99.90;;;;;;5032287;28;20684;-58
2022/05/11 05:42:23;;;;;;;18.77;3.13;;;12.20;99.90;;;;;;5032363;28;20174;-59
2022/05/11 05:44:49;;;;;;;10.80;2.70;;;12.20;99.90;;;;;;5032126;28;20746;-58
2022/05/11 05:47:16;;;;;;;16.87;3.30;;;12.10;99.90;;;;;;5032166;28;20182;-58
2022/05/11 05:49:42;;;;;;;13.50;2.70;;;12.10;99.90;;;;;;5032325;28;20178;-58
2022/05/11 05:52:08;;;;;;;16.50;3.60;;;12.10;99.90;;;;;;5032095;28;20182;-58
2022/05/11 05:54:36;;;;;;;18.90;3.43;;;12.10;99.90;;;;;;5032175;28;20221;-58
2022/05/11 05:57:02;;;;;;;15.53;2.97;;;12.10;99.90;;;;;;5032113;28;20198;-59
2022/05/11 05:59:28;;;;;;;20.53;3.10;;;12.20;99.90;;;;;;5031600;28;20201;-58
2022/05/11 06:01:54;;;;;;;14.30;3.07;;;12.20;99.90;;;;;;5031921;28;20231;-58
2022/05/11 06:04:20;;;;;;;29.87;4.03;;;12.20;99.90;;;;;;5031696;28;20162;-58
2022/05/11 06:06:45;;;;;;;20.60;3.23;;;12.20;99.90;;;;;;5031796;28;20244;-58
2022/05/11 06:09:11;;;;;;;20.70;3.40;;;12.20;99.90;;;;;;5031789;28;20285;-58
2022/05/11 06:11:37;;;;;;;20.10;3.43;;;12.20;99.90;;;;;;5031749;28;20177;-58
2022/05/11 06:14:05;;;;;;;20.00;3.70;;;12.20;99.90;;;;;;5031661;28;20174;-58
2022/05/11 06:16:33;;;;;;;18.47;3.20;;;12.30;99.90;;;;;;5031607;28;20625;-58
2022/05/11 06:18:59;;;;;;;21.63;4.00;;;12.30;99.90;;;;;;5031548;28;20237;-58
2022/05/11 06:21:25;;;;;;;25.17;3.70;;;12.40;99.90;;;;;;5031748;28;20174;-58
2022/05/11 06:23:51;;;;;;;19.77;3.73;;;12.40;99.90;;;;;;5031515;28;20688;-58
2022/05/11 06:26:17;;;;;;;19.07;3.40;;;12.40;99.90;;;;;;5031415;28;20635;-58
2022/05/11 06:28:44;;;;;;;25.13;4.00;;;12.30;99.90;;;;;;5031427;28;20178;-58
2022/05/11 06:31:11;;;;;;;29.00;4.37;;;12.40;99.90;;;;;;5031362;28;20178;-58
2022/05/11 06:33:37;;;;;;;20.53;3.83;;;12.50;99.90;;;;;;5031352;28;20526;-58
2022/05/11 06:36:05;;;;;;;32.27;4.17;;;12.50;99.90;;;;;;5031131;28;20170;-59
2022/05/11 06:38:31;;;;;;;24.83;5.03;;;12.50;99.90;;;;;;5031019;28;20166;-58
2022/05/11 06:41:05;;;;;;;25.63;3.70;;;12.50;99.90;;;;;;5031079;28;20174;-58
2022/05/11 06:43:31;;;;;;;13.83;3.43;;;12.50;99.90;;;;;;5030955;28;20217;-58
2022/05/11 06:45:57;;;;;;;23.17;5.07;;;12.50;99.90;;;;;;5030824;28;20528;-59
2022/05/11 06:48:23;;;;;;;25.50;4.43;;;12.50;99.90;;;;;;5030982;28;20178;-59
2022/05/11 06:50:49;;;;;;;20.70;3.30;;;12.60;99.90;;;;;;5031171;28;20249;-59
2022/05/11 06:53:15;;;;;;;18.83;3.57;;;12.60;99.90;;;;;;5031062;28;20517;-59
2022/05/11 06:59:20;;;;;;;23.17;3.43;;;12.70;99.90;;;;;;5031118;28;20192;-59
2022/05/11 07:01:14;;;;;;;27.43;3.87;;;12.60;99.90;;;;;;5030701;28;20242;-59
2022/05/11 07:03:40;;;;;;;17.67;3.60;;;12.60;99.90;;;;;;5030936;28;20404;-59
2022/05/11 07:06:07;;;;;;;28.20;3.70;;;12.70;99.90;;;;;;5031014;28;20203;-59
2022/05/11 07:08:44;;;;;;;20.33;3.77;;;12.70;99.90;;;;;;5030975;28;20513;-58
2022/05/11 07:13:56;;;;;;;18.83;3.60;;;12.80;99.90;;;;;;5030747;28;20176;-59
2022/05/11 07:16:23;;;;;;;23.10;4.40;;;12.80;99.90;;;;;;5030699;28;20249;-59
2022/05/11 07:18:49;;;;;;;26.03;3.73;;;12.80;99.90;;;;;;5030626;28;20201;-58
2022/05/11 07:21:15;;;;;;;29.67;3.80;;;12.90;99.90;;;;;;5030761;28;20173;-58
2022/05/11 07:23:40;;;;;;;17.63;3.30;;;12.90;99.90;;;;;;5030796;28;20657;-58
2022/05/11 07:26:06;;;;;;;24.60;4.17;;;12.90;99.90;;;;;;5030633;28;20174;-58
2022/05/11 07:28:32;;;;;;;20.30;3.13;;;12.90;99.90;;;;;;5029479;28;20174;-58
2022/05/11 07:30:58;;;;;;;14.73;3.07;;;12.90;99.90;;;;;;5029429;28;20186;-58
2022/05/11 07:33:24;;;;;;;21.63;3.93;;;12.90;99.90;;;;;;5030867;28;20181;-59
2022/05/11 07:35:50;;;;;;;24.53;3.53;;;12.90;99.90;;;;;;5030465;28;20174;-58
2022/05/11 07:38:18;;;;;;;19.17;4.30;;;12.90;99.90;;;;;;5030737;28;20289;-58
2022/05/11 07:40:44;;;;;;;22.63;4.17;;;12.90;99.90;;;;;;5030442;28;20316;-58
2022/05/11 07:43:11;;;;;;;19.63;3.77;;;12.90;99.90;;;;;;5030332;28;20201;-58
2022/05/11 07:45:39;;;;;;;24.90;4.30;;;12.90;99.90;;;;;;5030479;28;20200;-58
2022/05/11 07:48:06;;;;;;;23.07;3.60;;;12.90;99.90;;;;;;5030298;28;20216;-58
2022/05/11 07:50:32;;;;;;;22.37;3.70;;;12.90;99.90;;;;;;5030561;28;20177;-58
2022/05/11 07:52:58;;;;;;;25.40;4.40;;;13.00;99.90;;;;;;5030607;28;20182;-58
2022/05/11 07:55:25;;;;;;;17.77;3.63;;;13.00;99.90;;;;;;5030445;28;20621;-58
2022/05/11 08:00:36;;;;;;;17.17;3.50;;;12.90;99.90;;;;;;5030269;28;20267;-58
2022/05/11 08:03:03;;;;;;;26.70;4.30;;;12.90;99.90;;;;;;5030542;28;20178;-57
2022/05/11 08:05:30;;;;;;;23.13;4.53;;;13.10;99.90;;;;;;5030287;28;20170;-58
2022/05/11 08:07:58;;;;;;;17.23;3.60;;;12.90;99.90;;;;;;5030393;28;20178;-59
2022/05/11 08:10:30;;;;;;;22.20;3.90;;;12.90;99.90;;;;;;5030164;28;20174;-59
2022/05/11 08:12:56;;;;;;;18.63;3.73;;;12.90;99.90;;;;;;5030163;28;20174;-59
2022/05/11 08:15:24;;;;;;;23.13;4.87;;;12.90;99.90;;;;;;5030313;28;20645;-58
2022/05/11 08:17:51;;;;;;;26.07;4.07;;;12.90;99.90;;;;;;5030218;28;20170;-58
2022/05/11 08:20:29;;;;;;;17.13;3.63;;;12.90;99.90;;;;;;5030050;28;20351;-58
2022/05/11 08:22:56;;;;;;;20.57;4.20;;;12.80;99.90;;;;;;5033392;28;20257;-58
2022/05/11 08:25:25;;;;;;;22.17;3.67;;;12.80;99.90;;;;;;5033659;28;20236;-59
2022/05/11 08:27:52;;;;;;;16.83;3.53;;;12.70;99.90;;;;;;5033716;28;20170;-58
2022/05/11 08:33:24;;;;;;;17.30;3.40;;;12.80;99.90;;;;;;5033914;28;20177;-58
2022/05/11 08:35:57;;;;;;;15.97;3.80;;;12.80;99.90;;;;;;5033539;28;20166;-58
2022/05/11 08:38:29;;;;;;;20.00;4.07;;;12.80;99.90;;;;;;5033686;28;20185;-58
2022/05/11 08:41:05;;;;;;;19.00;3.67;;;12.80;99.90;;;;;;5033376;28;20224;-58
2022/05/11 08:43:32;;;;;;;22.63;4.40;;;12.80;99.90;;;;;;5033269;28;20217;-58
2022/05/11 08:46:20;;;;;;;18.50;3.90;;;12.90;99.90;;;;;;5033289;28;20261;-58
2022/05/11 08:48:51;;;;;;;20.40;4.70;;;12.90;99.90;;;;;;5033339;28;20260;-58
2022/05/11 08:51:35;;;;;;;24.37;4.43;;;13.00;99.90;;;;;;5033425;28;20177;-58
2022/05/11 08:54:20;;;;;;;19.10;4.53;;;13.00;99.90;;;;;;5033251;28;20248;-58
2022/05/11 08:56:48;;;;;;;16.10;3.47;;;13.10;99.90;;;;;;5033220;28;20185;-58
2022/05/11 08:59:23;;;;;;;20.83;4.27;;;13.10;99.90;;;;;;5033087;28;20229;-58
2022/05/11 09:01:58;;;;;;;24.57;3.93;;;13.10;99.90;;;;;;5033281;28;20178;-58
2022/05/11 09:04:40;;;;;;;22.30;3.97;;;13.10;99.90;;;;;;5033101;28;20200;-58
2022/05/11 09:07:08;;;;;;;16.60;3.13;;;13.10;99.90;;;;;;5033151;28;20177;-59
2022/05/11 09:09:34;;;;;;;20.43;4.13;;;13.20;99.90;;;;;;5033226;28;20568;-58
2022/05/11 09:11:59;;;;;;;22.23;4.13;;;13.20;99.90;;;;;;5032937;28;20655;-58
2022/05/11 09:14:39;;;;;;;19.80;4.20;;;13.20;99.90;;;;;;5032792;28;20174;-58
2022/05/11 09:17:19;;;;;;;20.60;4.20;;;13.30;99.90;;;;;;5032768;28;20323;-58
2022/05/11 09:19:53;;;;;;;22.77;3.83;;;13.30;99.90;;;;;;5032925;28;20255;-58
2022/05/11 09:22:24;;;;;;;23.23;4.40;;;13.50;99.90;;;;;;5032859;28;20178;-58
2022/05/11 09:24:59;;;;;;;18.23;3.63;;;13.50;99.90;;;;;;5032747;28;20178;-58
2022/05/11 09:27:32;;;;;;;17.20;3.70;;;13.50;99.90;;;;;;5032653;28;20173;-58
2022/05/11 09:30:15;;;;;;;20.77;4.10;;;13.60;99.90;;;;;;5032720;28;20178;-58
2022/05/11 09:32:44;;;;;;;23.90;4.55;;;13.60;99.90;;;;;;5031904;28;20176;-59
2022/05/11 09:35:36;;;;;;;19.83;4.07;;;13.70;99.90;;;;;;5032451;28;20159;-58
2022/05/11 09:38:17;;;;;;;14.37;3.33;;;13.70;99.90;;;;;;5032269;28;20243;-58
2022/05/11 09:40:58;;;;;;;15.53;4.10;;;13.70;99.90;;;;;;5032144;28;20205;-58
2022/05/11 09:43:35;;;;;;;16.73;3.50;;;13.70;99.90;;;;;;5031958;28;20170;-59
2022/05/11 09:46:15;;;;;;;12.13;4.00;;;13.80;99.90;;;;;;5031919;28;20177;-58
2022/05/11 09:49:09;;;;;;;18.70;4.33;;;13.80;99.90;;;;;;5032128;28;20178;-58
2022/05/11 09:51:43;;;;;;;10.90;2.83;;;13.90;99.90;;;;;;5032077;28;20178;-58
2022/05/11 09:54:23;;;;;;;21.30;3.95;;;13.90;99.90;;;;;;5032008;28;20656;-58
2022/05/11 09:56:53;;;;;;;10.50;2.77;;;13.90;99.90;;;;;;5032010;28;20185;-58
2022/05/11 09:59:28;;;;;;;16.97;4.23;;;13.80;99.90;;;;;;5031776;28;20225;-58
2022/05/11 10:02:32;;;;;;;16.38;3.70;;;13.90;99.90;;;;;;5032070;28;20288;-58
2022/05/11 10:05:10;;;;;;;12.50;3.63;;;13.90;99.90;;;;;;5031877;28;20170;-59
2022/05/11 10:07:44;;;;;;;21.15;3.85;;;13.90;99.90;;;;;;5031886;28;20166;-58
2022/05/11 10:10:18;;;;;;;14.30;3.67;;;13.90;99.90;;;;;;5032324;28;20214;-58
2022/05/11 10:12:46;;;;;;;10.60;3.17;;;14.00;99.90;;;;;;5031763;28;20172;-58
2022/05/11 10:24:26;;;;;;;14.40;3.30;;;14.10;99.90;;;;;;5015954;28;20540;-59
2022/05/11 10:26:52;;;;;;;14.93;3.72;;;14.10;99.90;;;;;;5031593;28;20166;-58
2022/05/11 10:29:24;;;;;;;11.93;3.25;;;14.20;99.90;;;;;;5031448;28;20633;-58
2022/05/11 10:32:05;;;;;;;18.63;3.58;;;14.20;99.90;;;;;;5031409;28;20185;-58
2022/05/11 10:34:50;;;;;;;7.70;2.35;;;14.20;99.90;;;;;;5031400;28;20273;-59
2022/05/11 10:37:38;;;;;;;8.07;2.80;;;14.10;99.90;;;;;;5031346;28;20197;-58
2022/05/11 10:40:15;;;;;;;12.73;3.20;;;14.20;99.90;;;;;;5031211;28;20217;-59
2022/05/11 10:43:00;;;;;;;9.60;2.58;;;14.20;99.90;;;;;;5029674;28;20205;-58
2022/05/11 10:45:59;;;;;;;11.60;3.10;;;14.20;99.90;;;;;;5029938;28;20258;-58
2022/05/11 10:48:43;;;;;;;9.77;2.35;;;14.20;99.90;;;;;;5031043;28;20196;-58
2022/05/11 10:51:30;;;;;;;9.50;2.55;;;14.10;99.90;;;;;;5030962;28;20162;-58
2022/05/11 10:54:41;;;;;;;11.18;3.35;;;14.10;99.90;;;;;;5030954;28;20394;-59
2022/05/11 10:57:18;;;;;;;11.95;3.45;;;14.20;99.90;;;;;;5018013;28;20672;-59
2022/05/11 10:59:47;;;;;;;13.82;3.20;;;14.20;99.90;;;;;;5030816;28;20300;-59
2022/05/11 11:02:28;;;;;;;10.57;3.15;;;14.20;99.90;;;;;;5029988;28;20181;-58
2022/05/11 11:05:34;;;;;;;8.57;2.95;;;14.20;99.90;;;;;;5030786;28;20173;-59
2022/05/11 11:08:06;;;;;;;10.88;2.95;;;14.30;99.90;;;;;;5030668;28;20162;-59
2022/05/11 11:10:48;;;;;;;6.70;2.88;;;14.30;99.90;;;;;;5030757;28;20628;-59
2022/05/11 11:13:24;;;;;;;8.07;3.17;;;14.40;99.90;;;;;;5030585;28;20181;-59
2022/05/11 11:15:51;;;;;;;8.60;2.78;;;14.40;99.90;;;;;;5030396;28;20516;-59
2022/05/11 11:18:23;;;;;;;4.70;1.60;;;14.40;99.90;;;;;;5030872;28;20236;-58
2022/05/11 11:20:49;;;;;;;4.85;1.95;;;14.40;99.90;;;;;;5030564;28;20220;-59
2022/05/11 11:23:14;;;;;;;7.72;3.00;;;14.50;99.90;;;;;;5030615;28;20178;-59
2022/05/11 11:25:59;;;;;;;5.38;2.08;;;14.50;99.90;;;;;;5030643;28;20173;-59
2022/05/11 11:28:39;;;;;;;4.45;1.45;;;14.50;99.90;;;;;;5030587;28;20200;-59
2022/05/11 11:31:14;;;;;;;5.07;1.67;;;14.20;99.90;;;;;;5030664;28;20177;-59
2022/05/11 11:34:02;;;;;;;8.30;2.03;;;14.30;99.90;;;;;;5030604;28;20177;-59
2022/05/11 11:36:46;;;;;;;7.40;1.70;;;14.20;99.90;;;;;;5030467;28;20174;-59
2022/05/11 11:39:33;;;;;;;7.72;1.40;;;14.20;99.90;;;;;;5030447;28;20300;-59
2022/05/11 11:42:03;;;;;;;7.35;1.45;;;14.30;99.90;;;;;;5030157;28;20667;-58
2022/05/11 11:44:49;;;;;;;6.20;1.00;;;14.10;99.90;;;;;;5030270;28;20222;-58
2022/05/11 11:47:42;;;;;;;5.60;1.27;;;14.10;99.90;;;;;;5030137;28;20188;-59
2022/05/11 11:50:12;;;;;;;4.93;0.88;;;14.60;99.90;;;;;;5015034;28;20193;-59
2022/05/11 11:52:44;;;;;;;7.90;1.30;;;15.20;99.90;;;;;;5030528;28;20227;-59
2022/05/11 11:55:30;;;;;;;4.03;0.88;;;15.60;99.90;;;;;;5028977;28;20228;-59
2022/05/11 11:58:16;;;;;;;2.47;1.05;;;16.00;99.90;;;;;;5033409;28;20655;-59
2022/05/11 12:00:48;;;;;;;4.88;0.82;;;16.00;99.90;;;;;;5034160;28;20205;-58
2022/05/11 12:03:23;;;;;;;3.08;0.98;;;15.90;99.90;;;;;;5034189;28;20247;-59
2022/05/11 12:05:53;;;;;;;2.70;0.82;;;15.80;99.90;;;;;;5033931;28;20573;-62
2022/05/11 12:16:59;;;;;;;4.82;1.00;;;15.80;99.90;;;;;;5034141;28;20189;-58
2022/05/11 12:19:27;;;;;;;1.88;0.80;;;15.80;99.90;;;;;;5033734;28;20208;-59
2022/05/11 12:22:17;;;;;;;5.65;1.08;;;15.80;99.90;;;;;;5033774;28;20189;-59
2022/05/11 12:24:47;;;;;;;8.77;1.10;;;15.90;99.90;;;;;;5033615;28;20217;-59
2022/05/11 12:27:23;;;;;;;5.40;1.30;;;15.90;99.90;;;;;;5033770;28;20259;-59
2022/05/11 12:29:59;;;;;;;10.95;3.25;;;16.00;99.90;;;;;;5033527;28;20166;-60
2022/05/11 12:32:31;;;;;;;13.80;4.00;;;15.70;99.90;;;;;;5033704;28;20184;-59
2022/05/11 12:35:07;;;;;;;7.60;2.25;;;15.90;99.90;;;;;;5033633;28;20170;-59
2022/05/11 12:37:35;;;;;;;8.38;1.20;;;16.50;99.90;;;;;;5033481;28;20223;-59
2022/05/11 12:40:04;;;;;;;3.08;0.77;;;16.80;99.90;;;;;;5033355;28;20275;-59
2022/05/11 12:42:45;;;;;;;11.48;1.40;;;17.20;99.90;;;;;;5033458;28;20174;-59
2022/05/11 12:45:26;;;;;;;17.15;5.57;;;17.70;99.90;;;;;;5031890;28;20713;-59
2022/05/11 12:47:59;;;;;;;6.90;1.70;;;18.00;99.90;;;;;;5033265;28;20711;-59
2022/05/11 12:50:31;;;;;;;9.05;1.60;;;18.10;99.90;;;;;;5033445;28;20204;-64
2022/05/11 12:53:22;;;;;;;8.38;2.47;;;18.90;99.90;;;;;;5033245;28;20247;-63
2022/05/11 12:55:55;;;;;;;6.68;1.55;;;19.00;99.90;;;;;;5028276;28;20186;-64
2022/05/11 12:58:28;;;;;;;8.35;1.88;;;18.50;99.90;;;;;;5033187;28;20219;-63
2022/05/11 13:00:57;;;;;;;11.13;2.30;;;17.90;99.90;;;;;;5033159;28;20230;-64
2022/05/11 13:03:29;;;;;;;7.80;1.63;;;17.30;99.90;;;;;;5033116;28;20170;-64
2022/05/11 13:06:02;;;;;;;9.30;1.90;;;17.20;99.90;;;;;;5033073;28;20249;-64
2022/05/11 13:08:37;;;;;;;10.63;1.95;;;17.30;99.90;;;;;;5030664;28;20216;-64
2022/05/11 13:11:06;;;;;;;11.80;2.13;;;17.20;99.90;;;;;;5032936;28;20224;-65
2022/05/11 13:13:32;;;;;;;6.35;1.33;;;17.80;99.90;;;;;;5032759;28;20536;-66
2022/05/11 13:16:14;;;;;;;6.65;1.95;;;18.00;99.90;;;;;;5032782;28;20180;-65
2022/05/11 13:18:40;;;;;;;9.43;1.60;;;18.60;99.90;;;;;;5030497;28;20554;-65
2022/05/11 13:21:08;;;;;;;4.90;0.93;;;19.00;99.90;;;;;;5032597;28;20290;-64
2022/05/11 13:23:46;;;;;;;5.93;1.42;;;19.20;99.90;;;;;;5031392;28;20616;-65
2022/05/11 13:26:29;;;;;;;12.02;1.50;;;19.80;99.90;;;;;;5032641;28;20185;-64
2022/05/11 13:29:01;;;;;;;7.25;1.65;;;19.50;99.90;;;;;;5032337;28;20659;-63
2022/05/11 13:31:33;;;;;;;9.77;1.30;;;19.30;99.90;;;;;;5032450;28;20616;-64
2022/05/11 13:34:01;;;;;;;10.82;1.48;;;18.70;99.90;;;;;;5032349;28;20317;-64